This is the latest recevied weather packets stored in our database for station/object F5MAP-5. If no packets are shown the sender has not sent any weather packets the latest 1 day(s).
| Time | Temp. | Humidity | Pressure | Rain* | Wind** | Luminosity | Snow |
|---|---|---|---|---|---|---|---|
| 1836274515 | 14.44° C | 91% | 1020.3 hPa | 0 mm | 0 m/s | 0 W/m² | - |
| 1836274365 | 14.44° C | 91% | 1020.2 hPa | 0 mm | 0.45 m/s, 269° | 0 W/m² | - |
| 1836273915 | 14.44° C | 91% | 1020.3 hPa | 0 mm | 0.45 m/s, 203° | 0 W/m² | - |
| 1778013132 | 13.33° C | 87% | 1009 hPa | 0 mm | 1.34 m/s, 161° | 0 W/m² | - |
| 1778012532 | 13.33° C | 86% | 1009 hPa | 0 mm | 0.89 m/s, 188° | 0 W/m² | - |
| 1778011932 | 13.89° C | 86% | 1008.7 hPa | 0 mm | 0.45 m/s, 181° | 0 W/m² | - |
| 1778011332 | 13.89° C | 86% | 1008.6 hPa | 0 mm | 0.89 m/s, 209° | 0 W/m² | - |
| 1778010732 | 13.89° C | 85% | 1008.7 hPa | 0 mm | 1.79 m/s, 219° | 0 W/m² | - |
| 1778010132 | 13.89° C | 85% | 1008.5 hPa | 0 mm | 2.24 m/s, 197° | 0 W/m² | - |
| 1778009533 | 14.44° C | 85% | 1008.6 hPa | 0 mm | 2.68 m/s, 240° | 0 W/m² | - |
| 1778008932 | 14.44° C | 84% | 1008.5 hPa | 0 mm | 2.24 m/s, 219° | 0 W/m² | - |
| 1778008331 | 14.44° C | 84% | 1008.4 hPa | 0 mm | 2.68 m/s, 223° | 0 W/m² | - |
| 1778007732 | 14.44° C | 84% | 1008.2 hPa | 0 mm | 2.68 m/s, 223° | 0 W/m² | - |
| 1778007131 | 15° C | 84% | 1008.2 hPa | 0 mm | 3.58 m/s, 229° | 0 W/m² | - |
| 1778006531 | 15.56° C | 85% | 1008.2 hPa | 0 mm | 2.68 m/s, 222° | 0 W/m² | - |
| 1778005931 | 15.56° C | 85% | 1008.1 hPa | 0 mm | 2.24 m/s, 203° | 5 W/m² | - |
| 1778005331 | 15.56° C | 84% | 1007.9 hPa | 0 mm | 2.68 m/s, 220° | 12 W/m² | - |
| 1778004731 | 15.56° C | 82% | 1007.8 hPa | 0 mm | 2.24 m/s, 186° | 12 W/m² | - |
| 1778004131 | 16.11° C | 83% | 1007.9 hPa | 0 mm | 2.24 m/s, 212° | 9 W/m² | - |
| 1778003531 | 16.11° C | 83% | 1007.8 hPa | 0 mm | 2.24 m/s, 195° | 7 W/m² | - |
| 1778002931 | 16.11° C | 84% | 1007.8 hPa | 0 mm | 3.58 m/s, 268° | 11 W/m² | - |
| 1778002332 | 16.11° C | 84% | 1007.7 hPa | 0 mm | 2.68 m/s, 215° | 28 W/m² | - |
| 1778001731 | 16.11° C | 84% | 1007.7 hPa | 0 mm | 1.79 m/s, 194° | 44 W/m² | - |
| 1778001131 | 16.11° C | 84% | 1007.6 hPa | 0 mm | 2.68 m/s, 234° | 62 W/m² | - |
| 1778000531 | 16.11° C | 84% | 1007.5 hPa | 0 mm | 2.68 m/s, 200° | 40 W/m² | - |
* Rain latest hour (hover to see other rain measurements)
** Current wind speed in m/s (hover to see current wind gust speed)